createdAt,value
2023-03-17T00:00:32.596Z,4.30
2023-03-17T00:05:31.531Z,3.10
2023-03-17T01:10:14.264Z,6.23
2023-03-17T01:15:08.772Z,5.63
2023-03-17T01:20:02.108Z,5.60
2023-03-17T01:24:55.414Z,3.83
2023-03-17T01:29:54.420Z,4.03
2023-03-17T01:34:47.855Z,4.03
2023-03-17T01:39:41.189Z,5.90
2023-03-17T01:44:34.883Z,3.27
2023-03-17T02:30:26.861Z,3.23
2023-03-17T02:35:20.734Z,4.57
2023-03-17T02:40:16.640Z,7.20
2023-03-17T02:45:13.210Z,3.40
2023-03-17T02:50:11.669Z,4.20
2023-03-17T02:55:05.644Z,7.13
2023-03-17T02:59:59.016Z,3.83
2023-03-17T03:04:53.064Z,6.93
2023-03-17T03:30:16.265Z,3.90
2023-03-17T03:35:10.745Z,4.70
2023-03-17T03:40:04.295Z,5.57
2023-03-17T03:44:57.669Z,5.20
2023-03-17T04:20:34.772Z,3.70
2023-03-17T04:25:28.565Z,9.73
2023-03-17T04:30:22.185Z,15.30
2023-03-17T04:35:19.144Z,9.00
2023-03-17T04:40:16.734Z,4.57
2023-03-17T04:45:14.101Z,5.47
2023-03-17T05:00:23.231Z,20.83
2023-03-17T05:10:17.389Z,8.77
2023-03-17T05:15:11.449Z,9.43
2023-03-17T05:20:08.466Z,8.80
2023-03-17T05:25:01.984Z,7.23
2023-03-17T05:29:55.358Z,5.60
2023-03-17T05:34:48.756Z,4.63
2023-03-17T05:39:45.638Z,3.87
2023-03-17T05:44:39.735Z,6.43
2023-03-17T06:50:58.538Z,7.40
2023-03-17T06:55:51.878Z,10.70
2023-03-17T07:00:49.044Z,9.53
2023-03-17T07:05:42.706Z,9.40
2023-03-17T07:46:25.025Z,7.60
2023-03-17T09:13:16.360Z,12.73
2023-03-17T09:18:10.626Z,6.90
2023-03-17T09:23:09.155Z,7.23
2023-03-17T09:28:02.717Z,9.17
2023-03-17T09:32:58.304Z,6.80
2023-03-17T09:37:51.677Z,7.10
2023-03-17T09:43:01.718Z,8.70
2023-03-17T09:48:29.760Z,8.13
2023-03-17T09:53:24.798Z,9.27
2023-03-17T10:34:19.161Z,7.03
2023-03-17T10:39:16.091Z,7.63
2023-03-17T10:44:40.697Z,13.87
2023-03-17T11:58:31.579Z,11.17
2023-03-17T12:10:13.173Z,8.87
2023-03-17T12:15:21.161Z,9.73
2023-03-17T12:20:31.831Z,10.20
2023-03-17T12:25:33.868Z,10.77
2023-03-17T12:41:10.745Z,9.30
2023-03-17T13:06:45.372Z,10.50
2023-03-17T13:16:47.990Z,11.43
2023-03-17T13:32:34.884Z,12.13
2023-03-17T13:37:35.775Z,14.03
2023-03-17T13:43:03.085Z,11.57
2023-03-17T13:48:33.763Z,13.03
2023-03-17T14:49:39.447Z,15.93
2023-03-17T14:54:35.898Z,13.17
2023-03-17T14:59:34.377Z,14.37
2023-03-17T15:04:30.484Z,9.97
2023-03-17T15:50:31.362Z,11.97
2023-03-17T15:55:29.494Z,10.80
2023-03-17T16:00:25.340Z,13.83
2023-03-17T16:05:22.215Z,11.80
2023-03-17T16:30:46.644Z,15.97
2023-03-17T16:40:49.735Z,14.13
2023-03-17T16:50:46.949Z,14.40
2023-03-17T16:55:41.516Z,14.57
2023-03-17T17:00:34.894Z,14.63
2023-03-17T17:05:32.281Z,13.47
2023-03-17T17:15:35.178Z,13.87
2023-03-17T17:20:34.884Z,17.07
2023-03-17T17:25:29.974Z,17.00
2023-03-17T17:56:04.734Z,13.50
2023-03-17T18:00:58.713Z,16.07
2023-03-17T18:05:52.246Z,16.63
2023-03-17T18:52:08.314Z,16.67
2023-03-17T18:57:13.616Z,16.10
2023-03-17T19:02:46.737Z,16.13
2023-03-17T19:07:51.054Z,19.77
2023-03-17T19:53:41.993Z,23.00
2023-03-17T20:39:39.238Z,51.13
2023-03-17T20:44:32.714Z,26.93
2023-03-17T20:49:28.056Z,17.80
2023-03-17T22:46:41.590Z,15.13
2023-03-17T22:51:36.031Z,11.17
2023-03-17T22:56:30.105Z,20.40
2023-03-17T23:01:25.798Z,17.67
2023-03-17T23:06:21.198Z,15.37
2023-03-17T23:31:43.604Z,16.13
2023-03-17T23:36:40.141Z,14.03
2023-03-17T23:41:33.800Z,13.60
2023-03-17T23:46:29.035Z,11.63
2023-03-17T23:56:30.831Z,13.67
